Time;durP1;ratioP1;P1;durP2;ratioP2;P2;SDS_P1;SDS_P2;PMS_P1;PMS_P2;Temp;Humidity;BMP_temperature;BMP_pressure;BME280_temperature;BME280_humidity;BME280_pressure;Samples;Min_cycle;Max_cycle;Signal;HPM_P1;HPM_P2
2022/06/11 00:01:22;;;;;;;;;;;;;;;21.73;51.83;101763.34;7279013;19;153372;-55
2022/06/11 00:03:50;;;;;;;;;;;;;;;21.78;51.76;101771.75;7279410;19;151900;-55
2022/06/11 00:06:18;;;;;;;;;;;;;;;21.74;52.16;101782.75;7279521;19;153419;-54
2022/06/11 00:08:45;;;;;;;;;;;;;;;21.81;52.27;101764.69;7279173;19;153246;-55
2022/06/11 00:11:13;;;;;;;;;;;;;;;21.84;51.82;101766.91;7278516;19;152612;-55
2022/06/11 00:13:40;;;;;;;;;;;;;;;21.76;52.38;101767.56;7279269;19;153675;-55
2022/06/11 00:16:07;;;;;;;;;;;;;;;21.80;52.34;101777.94;7278630;19;153268;-54
2022/06/11 00:18:34;;;;;;;;;;;;;;;21.84;52.09;101772.53;7278017;19;151768;-55
2022/06/11 00:21:02;;;;;;;;;;;;;;;21.76;52.32;101771.19;7285408;19;153691;-54
2022/06/11 00:23:28;;;;;;;;;;;;;;;21.72;52.62;101772.91;7278847;19;152423;-56
2022/06/11 00:25:55;;;;;;;;;;;;;;;21.79;52.82;101773.44;7277788;19;152366;-54
2022/06/11 00:28:22;;;;;;;;;;;;;;;21.78;53.13;101776.53;7275681;19;153816;-54
2022/06/11 00:30:49;;;;;;;;;;;;;;;21.77;52.96;101780.47;7279025;19;151766;-55
2022/06/11 00:33:15;;;;;;;;;;;;;;;21.76;53.05;101767.56;7277179;19;153700;-54
2022/06/11 00:35:42;;;;;;;;;;;;;;;21.72;53.37;101773.75;7281335;19;154464;-54
2022/06/11 00:38:10;;;;;;;;;;;;;;;21.68;53.48;101772.69;7283494;19;156048;-55
2022/06/11 00:40:37;;;;;;;;;;;;;;;21.72;53.46;101773.75;7286738;19;154842;-56
2022/06/11 00:43:06;;;;;;;;;;;;;;;21.83;53.26;101773.66;7293268;19;153673;-55
2022/06/11 00:45:56;;;;;;;;;;;;;;;21.77;53.41;101784.13;7285040;19;152916;-53
2022/06/11 00:48:35;;;;;;;;;;;;;;;21.83;53.38;101776.47;7280372;19;154002;-54
2022/06/11 00:51:10;;;;;;;;;;;;;;;21.82;53.89;101783.25;7285903;19;151534;-54
2022/06/11 00:53:39;;;;;;;;;;;;;;;21.85;53.52;101785.47;7286070;19;152669;-55
2022/06/11 00:56:09;;;;;;;;;;;;;;;21.89;53.43;101778.13;7284020;19;154452;-55
2022/06/11 00:58:38;;;;;;;;;;;;;;;21.82;53.90;101786.06;7285721;19;152267;-54
2022/06/11 01:01:06;;;;;;;;;;;;;;;21.82;53.51;101792.53;7283762;19;152611;-56
2022/06/11 01:03:36;;;;;;;;;;;;;;;21.80;54.15;101783.56;7284492;19;153629;-52
2022/06/11 01:06:27;;;;;;;;;;;;;;;21.75;53.99;101789.22;7290659;19;152028;-54
2022/06/11 01:09:12;;;;;;;;;;;;;;;21.71;54.44;101786.16;7283928;19;154272;-54
2022/06/11 01:11:39;;;;;;;;;;;;;;;21.74;54.38;101788.38;7285493;19;152547;-54
2022/06/11 01:14:06;;;;;;;;;;;;;;;21.79;54.45;101789.47;7285781;19;153469;-54
2022/06/11 01:16:34;;;;;;;;;;;;;;;21.73;54.84;101791.47;7284550;19;153236;-55
2022/06/11 01:19:01;;;;;;;;;;;;;;;21.73;54.99;101789.50;7283944;19;152119;-55
2022/06/11 01:21:33;;;;;;;;;;;;;;;21.75;55.17;101789.22;7283594;19;152975;-54
2022/06/11 01:24:18;;;;;;;;;;;;;;;21.74;55.06;101787.53;7284977;19;153208;-53
2022/06/11 01:26:46;;;;;;;;;;;;;;;21.70;55.06;101787.31;7292291;19;153703;-53
2022/06/11 01:29:31;;;;;;;;;;;;;;;21.73;55.28;101799.94;7283267;19;153590;-54
2022/06/11 01:32:01;;;;;;;;;;;;;;;21.80;55.16;101791.16;7284193;19;151970;-54
2022/06/11 01:34:46;;;;;;;;;;;;;;;21.76;54.76;101790.06;7283274;19;152633;-54
2022/06/11 01:37:16;;;;;;;;;;;;;;;21.75;55.27;101794.84;7283210;19;153298;-54
2022/06/11 01:39:43;;;;;;;;;;;;;;;21.76;55.53;101792.88;7283764;19;151814;-54
2022/06/11 01:42:14;;;;;;;;;;;;;;;21.74;55.30;101795.97;7283592;19;153016;-54
2022/06/11 01:44:42;;;;;;;;;;;;;;;21.76;55.29;101796.50;7283232;19;155179;-54
2022/06/11 01:47:12;;;;;;;;;;;;;;;21.73;55.55;101794.28;7282952;19;151790;-54
2022/06/11 01:49:46;;;;;;;;;;;;;;;21.73;55.71;101800.78;7289537;19;152641;-54
2022/06/11 01:52:34;;;;;;;;;;;;;;;21.70;55.94;101804.19;7283239;19;152084;-55
2022/06/11 01:55:13;;;;;;;;;;;;;;;21.73;56.00;101797.94;7282573;19;152863;-54
2022/06/11 01:57:49;;;;;;;;;;;;;;;21.70;55.69;101795.75;7279311;19;153139;-53
2022/06/11 02:00:19;;;;;;;;;;;;;;;21.70;55.72;101795.75;7283892;19;154527;-53
2022/06/11 02:03:18;;;;;;;;;;;;;;;21.70;56.19;101797.72;7283446;19;152665;-53
2022/06/11 02:06:33;;;;;;;;;;;;;;;21.69;56.01;101805.31;7282002;19;152963;-53
2022/06/11 02:09:09;;;;;;;;;;;;;;;21.69;56.30;101810.94;7281110;19;152708;-53
2022/06/11 02:11:45;;;;;;;;;;;;;;;21.69;55.95;101816.56;7282503;19;152818;-54
2022/06/11 02:14:36;;;;;;;;;;;;;;;21.68;56.24;101808.41;7290783;19;154088;-54
2022/06/11 02:17:06;;;;;;;;;;;;;;;21.74;56.69;101808.06;7283488;19;152639;-54
2022/06/11 02:19:36;;;;;;;;;;;;;;;21.71;56.11;101808.66;7282823;19;153269;-53
2022/06/11 02:22:11;;;;;;;;;;;;;;;21.70;56.69;101806.16;7282851;19;152637;-54
2022/06/11 02:24:41;;;;;;;;;;;;;;;21.70;56.80;101815.44;7282908;19;153874;-55
2022/06/11 02:27:12;;;;;;;;;;;;;;;21.74;56.18;101812.88;7280477;19;153810;-55
2022/06/11 02:29:39;;;;;;;;;;;;;;;21.74;56.88;101819.31;7281556;19;153298;-55
2022/06/11 02:32:09;;;;;;;;;;;;;;;21.70;56.48;101815.44;7282879;19;153531;-55
2022/06/11 02:34:41;;;;;;;;;;;;;;;21.70;56.75;101820.22;7282027;19;154453;-54
2022/06/11 02:37:17;;;;;;;;;;;;;;;21.71;56.74;101827.53;7287168;19;151962;-53
2022/06/11 02:39:44;;;;;;;;;;;;;;;21.74;56.97;101826.94;7281569;19;153300;-54
2022/06/11 02:42:13;;;;;;;;;;;;;;;21.72;56.62;101821.59;7282544;19;152151;-55
2022/06/11 02:44:40;;;;;;;;;;;;;;;21.73;56.72;101817.66;7282235;19;153677;-55
2022/06/11 02:47:07;;;;;;;;;;;;;;;21.73;56.70;101828.06;7280990;19;153264;-54
2022/06/11 02:49:35;;;;;;;;;;;;;;;21.72;57.27;101824.41;7279394;19;151681;-54
2022/06/11 02:52:07;;;;;;;;;;;;;;;21.73;57.12;101831.72;7282454;19;152823;-54
2022/06/11 02:54:35;;;;;;;;;;;;;;;21.73;57.09;101837.34;7280689;19;153341;-54
2022/06/11 02:57:02;;;;;;;;;;;;;;;21.74;56.84;101829.75;7283293;19;151787;-54
2022/06/11 02:59:29;;;;;;;;;;;;;;;21.74;56.89;101833.41;7282682;19;157851;-54
2022/06/11 03:01:56;;;;;;;;;;;;;;;21.74;57.16;101836.22;7282817;19;152258;-55
2022/06/11 03:04:24;;;;;;;;;;;;;;;21.74;57.18;101839.03;7281003;19;153781;-53
2022/06/11 03:06:52;;;;;;;;;;;;;;;21.74;57.19;101835.38;7282571;19;154521;-53
2022/06/11 03:09:20;;;;;;;;;;;;;;;21.77;57.26;101840.38;7279853;19;152817;-54
2022/06/11 03:11:47;;;;;;;;;;;;;;;21.76;57.21;101837.91;7281401;19;152974;-54
2022/06/11 03:14:14;;;;;;;;;;;;;;;21.74;56.95;101841.00;7278693;19;154164;-54
2022/06/11 03:16:41;;;;;;;;;;;;;;;21.74;56.77;101843.81;7282419;19;151791;-53
2022/06/11 03:19:09;;;;;;;;;;;;;;;21.72;57.36;101846.91;7281815;19;153070;-54
2022/06/11 03:21:37;;;;;;;;;;;;;;;21.71;57.11;101845.22;7288191;19;153171;-54
2022/06/11 03:24:04;;;;;;;;;;;;;;;21.72;57.22;101855.34;7282053;19;153504;-54
2022/06/11 03:26:32;;;;;;;;;;;;;;;21.75;57.35;101845.50;7279361;19;154047;-52
2022/06/11 03:28:58;;;;;;;;;;;;;;;21.75;57.05;101848.31;7278171;19;152031;-54
2022/06/11 03:31:25;;;;;;;;;;;;;;;21.74;56.89;101847.47;7277858;19;151919;-54
2022/06/11 03:33:52;;;;;;;;;;;;;;;21.73;57.26;101848.59;7280319;19;154291;-55
2022/06/11 03:36:18;;;;;;;;;;;;;;;21.73;57.22;101854.22;7280722;19;152344;-54
2022/06/11 03:38:46;;;;;;;;;;;;;;;21.73;57.21;101851.41;7281923;19;152721;-54
2022/06/11 03:41:14;;;;;;;;;;;;;;;21.72;57.42;101849.72;7285172;19;154406;-54
2022/06/11 03:43:41;;;;;;;;;;;;;;;21.74;57.48;101849.44;7279118;19;153276;-54
2022/06/11 03:46:08;;;;;;;;;;;;;;;21.77;57.11;101859.25;7279642;19;153640;-54
2022/06/11 03:48:36;;;;;;;;;;;;;;;21.79;57.15;101863.44;7277190;19;151687;-54
2022/06/11 03:51:04;;;;;;;;;;;;;;;21.73;57.17;101871.09;7281730;19;151987;-54
2022/06/11 03:53:31;;;;;;;;;;;;;;;21.77;57.26;101870.50;7276668;19;153350;-53
2022/06/11 03:55:58;;;;;;;;;;;;;;;21.83;57.56;101869.31;7279884;19;151780;-53
2022/06/11 03:58:25;;;;;;;;;;;;;;;21.79;57.74;101871.06;7276534;19;155118;-54
2022/06/11 04:03:38;;;;;;;;;;;;;;;21.79;57.45;101874.72;7285783;19;151509;-54
2022/06/11 04:06:05;;;;;;;;;;;;;;;21.76;57.71;101877.28;7280057;19;154121;-54
2022/06/11 04:08:33;;;;;;;;;;;;;;;21.71;57.82;101873.34;7278459;19;152617;-54
2022/06/11 04:11:00;;;;;;;;;;;;;;;21.70;58.04;101880.13;7283681;19;153565;-54
2022/06/11 04:13:27;;;;;;;;;;;;;;;21.72;57.74;101888.25;7285284;19;153116;-54
2022/06/11 04:15:55;;;;;;;;;;;;;;;21.72;57.71;101897.53;7286869;19;152404;-54
2022/06/11 04:18:38;;;;;;;;;;;;;;;21.70;57.81;101901.78;7286364;19;153059;-54
2022/06/11 04:21:06;;;;;;;;;;;;;;;21.69;57.67;101906.56;7284240;19;153439;-52
2022/06/11 04:23:34;;;;;;;;;;;;;;;21.68;57.91;101904.03;7287516;19;152116;-54
2022/06/11 04:26:07;;;;;;;;;;;;;;;21.70;57.85;101911.06;7291148;19;153202;-53
2022/06/11 04:28:33;;;;;;;;;;;;;;;21.69;58.27;101909.38;7285478;19;152434;-53
2022/06/11 04:31:01;;;;;;;;;;;;;;;21.70;57.79;101916.69;7287036;19;152564;-53
2022/06/11 04:33:28;;;;;;;;;;;;;;;21.69;57.70;101912.19;7284657;19;153453;-54
2022/06/11 04:35:55;;;;;;;;;;;;;;;21.69;58.08;101919.78;7284376;19;152886;-54
2022/06/11 04:38:21;;;;;;;;;;;;;;;21.74;58.34;101923.41;7286260;19;154098;-53
2022/06/11 04:40:48;;;;;;;;;;;;;;;21.74;57.83;101925.38;7286301;19;153783;-54
2022/06/11 04:43:15;;;;;;;;;;;;;;;21.78;57.78;101929.28;7286190;19;152091;-54
2022/06/11 04:45:42;;;;;;;;;;;;;;;21.82;57.49;101933.19;7286760;19;155502;-55
2022/06/11 04:48:09;;;;;;;;;;;;;;;21.78;57.62;101931.25;7288962;19;153831;-55
2022/06/11 04:50:37;;;;;;;;;;;;;;;21.75;57.40;101927.06;7284460;19;152531;-54
2022/06/11 04:53:04;;;;;;;;;;;;;;;21.76;57.35;101936.34;7283245;19;153360;-54
2022/06/11 04:55:36;;;;;;;;;;;;;;;21.74;57.72;101936.63;7285677;19;152769;-54
2022/06/11 04:58:03;;;;;;;;;;;;;;;21.71;57.30;101946.47;7283403;19;153199;-54
2022/06/11 05:00:31;;;;;;;;;;;;;;;21.73;57.42;101932.97;7285108;19;153307;-53
2022/06/11 05:02:59;;;;;;;;;;;;;;;21.73;57.68;101934.94;7284853;19;151543;-54
2022/06/11 05:05:28;;;;;;;;;;;;;;;21.68;58.01;101930.19;7286795;19;153624;-54
2022/06/11 05:08:06;;;;;;;;;;;;;;;21.66;58.17;101938.09;7282124;19;153392;-53
2022/06/11 05:10:36;;;;;;;;;;;;;;;21.64;57.82;101933.88;7291333;19;151698;-54
2022/06/11 05:13:05;;;;;;;;;;;;;;;21.64;57.99;101939.50;7283935;19;154210;-54
2022/06/11 05:15:38;;;;;;;;;;;;;;;21.63;58.35;101938.66;7285660;19;152766;-53
2022/06/11 05:18:05;;;;;;;;;;;;;;;21.65;58.27;101939.22;7283486;19;152578;-54
2022/06/11 05:20:32;;;;;;;;;;;;;;;21.72;58.18;101922.00;7283618;19;153269;-54
2022/06/11 05:23:00;;;;;;;;;;;;;;;21.70;58.06;101930.75;7284322;19;155265;-54
2022/06/11 05:25:40;;;;;;;;;;;;;;;21.71;57.98;101925.97;7282672;19;153413;-54
2022/06/11 05:28:08;;;;;;;;;;;;;;;21.76;58.41;101930.72;7283471;19;153467;-54
2022/06/11 05:30:35;;;;;;;;;;;;;;;21.69;58.05;101936.66;7283267;19;151917;-54
2022/06/11 05:33:02;;;;;;;;;;;;;;;21.69;58.06;101929.06;7289729;19;152533;-54
2022/06/11 05:35:35;;;;;;;;;;;;;;;21.72;57.89;101934.09;7284581;19;152466;-54
2022/06/11 05:38:03;;;;;;;;;;;;;;;21.71;58.27;101931.59;7282591;19;153307;-53
2022/06/11 05:40:32;;;;;;;;;;;;;;;21.66;58.83;101926.84;7282039;19;154440;-54
2022/06/11 05:42:59;;;;;;;;;;;;;;;21.68;58.53;101930.19;7282173;19;151873;-53
2022/06/11 05:45:40;;;;;;;;;;;;;;;21.65;58.46;101933.59;7284957;19;153556;-53
2022/06/11 05:48:07;;;;;;;;;;;;;;;21.66;58.94;101935.28;7281546;19;153757;-54
2022/06/11 05:50:36;;;;;;;;;;;;;;;21.69;58.46;101928.22;7281624;19;151906;-54
2022/06/11 05:53:04;;;;;;;;;;;;;;;21.72;58.58;101930.44;7288586;19;152718;-54
2022/06/11 05:55:39;;;;;;;;;;;;;;;21.76;58.26;101925.09;7284124;19;152327;-54
2022/06/11 05:58:08;;;;;;;;;;;;;;;21.69;58.29;101937.50;7282702;19;152540;-54
2022/06/11 06:00:34;;;;;;;;;;;;;;;21.73;58.48;101932.13;7281544;19;157320;-54
2022/06/11 06:03:01;;;;;;;;;;;;;;;21.71;58.38;101943.66;7285175;19;152240;-54
2022/06/11 06:05:39;;;;;;;;;;;;;;;21.71;57.98;101942.84;7282780;19;153482;-53
2022/06/11 06:08:07;;;;;;;;;;;;;;;21.77;58.25;101940.81;7281746;19;153750;-54
2022/06/11 06:10:33;;;;;;;;;;;;;;;21.66;58.33;101946.53;7281454;19;152447;-54
2022/06/11 06:13:00;;;;;;;;;;;;;;;21.70;57.93;101943.97;7282601;19;153418;-54
2022/06/11 06:15:32;;;;;;;;;;;;;;;21.73;58.09;101947.03;7290939;19;153586;-54
2022/06/11 06:18:11;;;;;;;;;;;;;;;21.68;57.85;101944.25;7284333;19;152726;-54
2022/06/11 06:20:38;;;;;;;;;;;;;;;21.64;58.17;101943.16;7279669;19;154025;-54
2022/06/11 06:23:04;;;;;;;;;;;;;;;21.62;58.45;101942.59;7283789;19;152055;-54
2022/06/11 06:25:39;;;;;;;;;;;;;;;21.67;58.18;101947.34;7282706;19;152370;-54
2022/06/11 06:28:06;;;;;;;;;;;;;;;21.63;58.40;101958.34;7283566;19;153349;-54
2022/06/11 06:30:32;;;;;;;;;;;;;;;21.65;58.43;101953.28;7280148;19;153076;-53
2022/06/11 06:32:59;;;;;;;;;;;;;;;21.72;58.02;101955.75;7280387;19;153476;-54
2022/06/11 06:35:34;;;;;;;;;;;;;;;21.78;57.95;101959.38;7280170;19;153957;-54
2022/06/11 06:38:09;;;;;;;;;;;;;;;21.78;57.50;101962.19;7287181;19;154011;-53
2022/06/11 06:40:36;;;;;;;;;;;;;;;21.76;57.83;101956.03;7283113;19;153013;-53
2022/06/11 06:43:08;;;;;;;;;;;;;;;21.74;57.72;101962.78;7281981;19;151751;-54
2022/06/11 06:45:38;;;;;;;;;;;;;;;21.78;57.14;101965.00;7282725;19;153705;-54
2022/06/11 06:48:05;;;;;;;;;;;;;;;21.71;57.67;101963.34;7280916;19;154472;-54
2022/06/11 06:50:32;;;;;;;;;;;;;;;21.71;57.67;101963.34;7280215;19;152344;-52
2022/06/11 06:52:59;;;;;;;;;;;;;;;21.79;57.12;101973.16;7282470;19;153677;-54
2022/06/11 06:55:37;;;;;;;;;;;;;;;21.81;56.94;101967.22;7281820;19;153501;-55
2022/06/11 06:58:09;;;;;;;;;;;;;;;21.82;56.53;101963.28;7280060;19;151804;-54
2022/06/11 07:00:36;;;;;;;;;;;;;;;21.74;57.06;101967.56;7289512;19;153049;-53
2022/06/11 07:03:12;;;;;;;;;;;;;;;21.71;57.46;101962.53;7281840;19;152457;-54
2022/06/11 07:06:08;;;;;;;;;;;;;;;21.67;57.52;101970.69;7281520;19;152151;-54
2022/06/11 07:08:55;;;;;;;;;;;;;;;21.60;57.85;101963.72;7279257;19;152860;-54
2022/06/11 07:11:24;;;;;;;;;;;;;;;21.68;57.19;101957.47;7281709;19;152172;-54
2022/06/11 07:13:51;;;;;;;;;;;;;;;21.65;57.12;101958.91;7281869;19;153474;-53
2022/06/11 07:16:21;;;;;;;;;;;;;;;21.70;57.05;101975.75;7281621;19;154371;-53
2022/06/11 07:18:50;;;;;;;;;;;;;;;21.67;57.03;101964.22;7279767;19;152265;-54
2022/06/11 07:21:20;;;;;;;;;;;;;;;21.71;57.17;101968.97;7281078;19;153534;-53
2022/06/11 07:23:50;;;;;;;;;;;;;;;21.75;56.91;101969.25;7286304;19;153979;-54
2022/06/11 07:26:19;;;;;;;;;;;;;;;21.71;57.04;101966.16;7282268;19;153250;-54
2022/06/11 07:28:49;;;;;;;;;;;;;;;21.69;57.06;101964.78;7279294;19;154302;-54
2022/06/11 07:31:16;;;;;;;;;;;;;;;21.72;56.84;101959.41;7277916;19;151594;-54
2022/06/11 07:33:43;;;;;;;;;;;;;;;21.63;57.34;101968.75;7279697;19;153313;-54
2022/06/11 07:36:12;;;;;;;;;;;;;;;21.74;56.99;101965.59;7280462;19;153854;-54
2022/06/11 07:38:39;;;;;;;;;;;;;;;21.74;56.53;101959.97;7280122;19;152217;-53
2022/06/11 07:41:06;;;;;;;;;;;;;;;21.72;56.77;101958.56;7282198;19;152502;-54
2022/06/11 07:43:33;;;;;;;;;;;;;;;21.65;57.14;101964.53;7279713;19;153294;-55
2022/06/11 07:46:00;;;;;;;;;;;;;;;21.68;57.39;101958.31;7287941;19;154908;-54
2022/06/11 07:48:27;;;;;;;;;;;;;;;21.67;57.52;101956.63;7280357;19;153686;-54
2022/06/11 07:50:54;;;;;;;;;;;;;;;21.67;57.72;101951.00;7277308;19;152300;-54
2022/06/11 07:53:21;;;;;;;;;;;;;;;21.73;57.51;101960.25;7280695;19;153433;-54
2022/06/11 07:55:49;;;;;;;;;;;;;;;21.77;57.91;101952.91;7277015;19;154538;-54
2022/06/11 07:58:16;;;;;;;;;;;;;;;21.82;58.13;101963.28;7276413;19;151659;-54
2022/06/11 08:00:44;;;;;;;;;;;;;;;21.89;58.33;101961.84;7280603;19;153320;-54
2022/06/11 08:03:11;;;;;;;;;;;;;;;21.95;58.76;101963.50;7279209;19;153138;-54
2022/06/11 08:05:41;;;;;;;;;;;;;;;22.01;58.31;101962.34;7287571;19;152520;-55
2022/06/11 08:08:08;;;;;;;;;;;;;;;22.06;57.83;101961.47;7278832;19;153999;-54
2022/06/11 08:10:36;;;;;;;;;;;;;;;22.12;58.24;101951.84;7278022;19;151796;-53
2022/06/11 08:13:04;;;;;;;;;;;;;;;22.17;58.19;101944.16;7280386;19;152598;-53
2022/06/11 08:15:37;;;;;;;;;;;;;;;22.23;57.85;101950.59;7276557;19;153850;-55
2022/06/11 08:18:07;;;;;;;;;;;;;;;22.29;57.55;101959.84;7278873;19;152417;-53
2022/06/11 08:20:36;;;;;;;;;;;;;;;22.33;56.93;101960.94;7277393;19;153368;-54
2022/06/11 08:23:03;;;;;;;;;;;;;;;22.38;56.59;101952.44;7278684;19;154345;-54
2022/06/11 08:25:36;;;;;;;;;;;;;;;22.41;56.89;101958.31;7279185;19;151801;-54
2022/06/11 08:28:02;;;;;;;;;;;;;;;22.43;56.79;101958.88;7287305;19;151790;-54
2022/06/11 08:30:30;;;;;;;;;;;;;;;22.46;56.27;101951.78;7275952;19;152054;-54
2022/06/11 08:32:57;;;;;;;;;;;;;;;22.46;55.30;101957.41;7279474;19;153754;-54
2022/06/11 08:35:40;;;;;;;;;;;;;;;22.45;54.72;101950.09;7277183;19;153977;-54
2022/06/11 08:38:07;;;;;;;;;;;;;;;22.44;53.80;101949.25;7279282;19;152084;-54
2022/06/11 08:40:40;;;;;;;;;;;;;;;22.45;53.48;101948.13;7278046;19;153239;-54
2022/06/11 08:43:10;;;;;;;;;;;;;;;22.44;52.90;101940.00;7278175;19;153182;-53
2022/06/11 08:45:43;;;;;;;;;;;;;;;22.46;53.08;101952.63;7279289;19;151470;-53
2022/06/11 08:48:18;;;;;;;;;;;;;;;22.49;52.93;101937.09;7278474;19;155405;-53
2022/06/11 08:50:51;;;;;;;;;;;;;;;22.50;48.91;101950.06;7279969;19;154121;-53
2022/06/11 08:53:20;;;;;;;;;;;;;;;22.25;46.95;101944.69;7278772;19;153122;-54
2022/06/11 08:55:47;;;;;;;;;;;;;;;22.07;46.71;101938.66;7275705;19;153473;-53
2022/06/11 08:58:45;;;;;;;;;;;;;;;21.98;46.62;101948.88;7284945;19;152074;-53
2022/06/11 09:01:15;;;;;;;;;;;;;;;21.85;47.05;101946.66;7282834;19;152599;-53
2022/06/11 09:04:01;;;;;;;;;;;;;;;21.77;46.91;101958.53;7283393;19;153704;-54
2022/06/11 09:06:41;;;;;;;;;;;;;;;21.70;47.17;101953.25;7283587;19;152141;-53
2022/06/11 09:09:19;;;;;;;;;;;;;;;21.68;46.81;101951.84;7283977;19;152659;-53
2022/06/11 09:12:03;;;;;;;;;;;;;;;21.79;47.99;101938.56;7279549;19;153974;-53
2022/06/11 09:14:36;;;;;;;;;;;;;;;21.93;47.68;101960.16;7291618;19;151951;-53
2022/06/11 09:17:02;;;;;;;;;;;;;;;21.95;47.53;101957.88;7280277;19;154307;-55
2022/06/11 09:19:35;;;;;;;;;;;;;;;21.98;47.84;101950.84;7281038;19;152088;-53
2022/06/11 09:22:08;;;;;;;;;;;;;;;22.00;48.05;101943.75;7281791;19;153217;-53
2022/06/11 09:24:42;;;;;;;;;;;;;;;22.01;48.35;101939.81;7284683;19;153331;-53
2022/06/11 09:27:13;;;;;;;;;;;;;;;22.04;48.06;101952.44;7281733;19;151939;-54
2022/06/11 09:29:47;;;;;;;;;;;;;;;22.11;48.23;101945.38;7284741;19;152963;-55
2022/06/11 09:32:19;;;;;;;;;;;;;;;22.16;48.54;101947.31;7283379;19;154407;-54
2022/06/11 09:34:54;;;;;;;;;;;;;;;22.21;48.11;101940.78;7283468;19;151588;-54
2022/06/11 09:37:24;;;;;;;;;;;;;;;22.22;48.72;101939.63;7290946;19;153085;-53
2022/06/11 09:40:03;;;;;;;;;;;;;;;22.22;48.67;101960.16;7283000;19;151954;-53
2022/06/11 09:42:35;;;;;;;;;;;;;;;22.22;48.97;101954.53;7284582;19;152567;-54
2022/06/11 09:45:11;;;;;;;;;;;;;;;22.29;48.59;101948.59;7283213;19;153967;-54
2022/06/11 09:47:48;;;;;;;;;;;;;;;22.30;48.96;101948.31;7284133;19;152470;-53
2022/06/11 09:50:15;;;;;;;;;;;;;;;22.29;48.71;101948.59;7284172;19;153211;-55
2022/06/11 09:52:57;;;;;;;;;;;;;;;22.32;48.83;101950.78;7283034;19;154411;-54
2022/06/11 09:55:45;;;;;;;;;;;;;;;22.28;48.72;101947.75;7283338;19;151744;-54
2022/06/11 09:58:15;;;;;;;;;;;;;;;22.38;49.02;101953.28;7282685;19;153645;-54
2022/06/11 10:01:09;;;;;;;;;;;;;;;22.45;48.97;101945.31;7232879;19;155036;-53
2022/06/11 10:03:52;;;;;;;;;;;;;;;22.49;48.86;101960.47;7276698;19;152438;-52
2022/06/11 10:06:29;;;;;;;;;;;;;;;22.55;49.12;101950.84;7270775;19;154256;-54
2022/06/11 10:08:59;;;;;;;;;;;;;;;22.60;48.79;101947.97;7279305;19;152325;-54
2022/06/11 10:11:52;;;;;;;;;;;;;;;22.58;49.59;101943.75;7276340;19;152735;-53
2022/06/11 10:14:28;;;;;;;;;;;;;;;22.59;49.38;101963.19;7277988;19;152490;-55
2022/06/11 10:16:59;;;;;;;;;;;;;;;22.59;49.32;101951.09;7280689;19;151987;-54
2022/06/11 10:19:44;;;;;;;;;;;;;;;22.66;49.10;101962.00;7281249;19;152803;-55
2022/06/11 10:22:19;;;;;;;;;;;;;;;22.64;49.57;101965.13;7286136;19;153387;-54
2022/06/11 10:24:56;;;;;;;;;;;;;;;22.62;49.63;101965.41;7280656;19;152593;-54
2022/06/11 10:27:30;;;;;;;;;;;;;;;22.62;49.51;101968.22;7278274;19;153735;-54
2022/06/11 10:30:02;;;;;;;;;;;;;;;22.51;48.78;101965.81;7279210;19;152469;-53
2022/06/11 10:32:37;;;;;;;;;;;;;;;22.58;48.34;101966.28;7276030;19;153294;-53
2022/06/11 10:35:04;;;;;;;;;;;;;;;22.53;47.79;101960.75;7278461;19;153237;-52
2022/06/11 10:37:38;;;;;;;;;;;;;;;22.54;47.79;101966.06;7278833;19;151719;-53
2022/06/11 10:40:04;;;;;;;;;;;;;;;22.56;47.18;101962.97;7280557;19;152770;-53
2022/06/11 10:42:51;;;;;;;;;;;;;;;22.56;47.25;101966.63;7278717;19;153451;-53
2022/06/11 10:45:18;;;;;;;;;;;;;;;22.49;47.76;101957.66;7287118;19;152552;-53
2022/06/11 10:47:47;;;;;;;;;;;;;;;22.44;47.06;101945.63;7278282;19;153233;-52
2022/06/11 10:50:14;;;;;;;;;;;;;;;22.44;47.42;101951.25;7275375;19;151757;-52
2022/06/11 10:52:51;;;;;;;;;;;;;;;22.44;47.34;101946.44;7280136;19;152651;-52
2022/06/11 10:55:37;;;;;;;;;;;;;;;22.39;47.41;101940.88;7278561;19;153434;-53
2022/06/11 10:58:14;;;;;;;;;;;;;;;22.38;47.47;101947.66;7277554;19;152278;-53
2022/06/11 11:00:45;;;;;;;;;;;;;;;22.34;47.91;101946.56;7277149;19;152945;-53
2022/06/11 11:03:14;;;;;;;;;;;;;;;22.38;48.06;101952.44;7273044;19;153278;-52
2022/06/11 11:05:49;;;;;;;;;;;;;;;22.41;47.93;101949.84;7278513;19;152444;-52
2022/06/11 11:08:19;;;;;;;;;;;;;;;22.44;47.65;101946.44;7284268;19;152744;-53
2022/06/11 11:10:47;;;;;;;;;;;;;;;22.46;47.66;101943.34;7278926;19;152132;-53
2022/06/11 11:13:21;;;;;;;;;;;;;;;22.42;48.02;101934.66;7249269;19;154508;-53
2022/06/11 11:15:56;;;;;;;;;;;;;;;22.42;47.59;101948.72;7258044;19;153235;-53
2022/06/11 11:18:25;;;;;;;;;;;;;;;22.41;47.08;101937.75;7267851;19;152183;-53
2022/06/11 11:20:53;;;;;;;;;;;;;;;22.48;47.57;101935.44;7276069;19;153934;-52
2022/06/11 11:23:25;;;;;;;;;;;;;;;22.51;47.82;101937.66;7277720;19;154031;-52
2022/06/11 11:25:59;;;;;;;;;;;;;;;22.54;47.95;101922.97;7277254;19;152146;-52
2022/06/11 11:28:26;;;;;;;;;;;;;;;22.57;47.58;101930.84;7278474;19;153433;-52
2022/06/11 11:31:04;;;;;;;;;;;;;;;22.54;47.91;101937.88;7283990;19;153207;-52
2022/06/11 11:33:33;;;;;;;;;;;;;;;22.53;48.07;101924.94;7279208;19;152876;-53
2022/06/11 11:36:23;;;;;;;;;;;;;;;22.60;48.00;101933.06;7276279;19;153865;-52
2022/06/11 11:39:08;;;;;;;;;;;;;;;22.59;47.73;101923.75;7274255;19;152254;-52
2022/06/11 11:41:37;;;;;;;;;;;;;;;22.63;47.81;101929.63;7277882;19;154168;-53
2022/06/11 11:44:04;;;;;;;;;;;;;;;22.63;47.29;101918.34;7276352;19;153324;-52
2022/06/11 11:46:33;;;;;;;;;;;;;;;22.66;47.64;101911.31;7276912;19;151799;-52
2022/06/11 11:49:01;;;;;;;;;;;;;;;22.69;47.37;101921.97;7278544;19;154108;-52
2022/06/11 11:51:34;;;;;;;;;;;;;;;22.69;46.90;101921.97;7275242;19;153923;-53
2022/06/11 11:54:02;;;;;;;;;;;;;;;22.67;47.32;101910.97;7284255;19;151610;-53
2022/06/11 11:56:31;;;;;;;;;;;;;;;22.70;47.17;101927.34;7276922;19;153516;-52
2022/06/11 11:59:12;;;;;;;;;;;;;;;22.73;46.80;101906.16;7274452;19;151814;-52
2022/06/11 12:01:40;;;;;;;;;;;;;;;22.69;46.87;101916.31;7275660;19;151797;-53
2022/06/11 12:04:21;;;;;;;;;;;;;;;22.66;46.96;101916.94;7271650;19;154049;-52
2022/06/11 12:06:56;;;;;;;;;;;;;;;22.62;46.93;101906.25;7276575;19;151753;-53
2022/06/11 12:09:25;;;;;;;;;;;;;;;22.65;47.15;101901.16;7277269;19;153642;-53
2022/06/11 12:12:00;;;;;;;;;;;;;;;22.65;46.77;101902.00;7274115;19;154117;-53
2022/06/11 12:14:31;;;;;;;;;;;;;;;22.66;46.64;101911.31;7285144;19;152761;-52
2022/06/11 12:17:02;;;;;;;;;;;;;;;22.66;46.55;101902.84;7272174;19;153264;-52
2022/06/11 12:19:32;;;;;;;;;;;;;;;22.63;46.44;101887.38;7278334;19;152200;-52
2022/06/11 12:22:09;;;;;;;;;;;;;;;22.62;44.50;101909.06;7276051;19;153372;-52
2022/06/11 12:24:36;;;;;;;;;;;;;;;22.59;44.58;101912.50;7274488;19;153985;-52
2022/06/11 12:27:12;;;;;;;;;;;;;;;22.56;44.73;101893.38;7277234;19;151663;-52
2022/06/11 12:29:42;;;;;;;;;;;;;;;22.51;45.03;101917.94;7278092;19;153202;-52
2022/06/11 12:32:11;;;;;;;;;;;;;;;22.50;44.72;101891.75;7282412;19;153737;-53
2022/06/11 12:34:38;;;;;;;;;;;;;;;22.56;45.39;101901.81;7285418;19;151941;-52
2022/06/11 12:37:29;;;;;;;;;;;;;;;22.52;43.63;101897.94;7293063;19;153609;-52
2022/06/11 12:40:02;;;;;;;;;;;;;;;22.53;43.76;101884.69;7283981;19;151861;-52
2022/06/11 12:42:28;;;;;;;;;;;;;;;22.48;43.70;101879.13;7285612;19;153516;-52
2022/06/11 12:45:11;;;;;;;;;;;;;;;22.50;44.41;101890.91;7285477;19;154019;-52
2022/06/11 12:47:57;;;;;;;;;;;;;;;22.45;44.14;101882.50;7234770;19;152714;-52
2022/06/11 12:51:01;;;;;;;;;;;;;;;22.41;43.81;101882.28;7281222;19;154165;-51
2022/06/11 12:53:47;;;;;;;;;;;;;;;22.39;44.29;101878.94;7280617;19;153588;-52